createdAt,value
2019-04-20T00:01:50.592Z,11.90
2019-04-20T00:04:24.729Z,12.50
2019-04-20T00:06:54.274Z,12.13
2019-04-20T00:09:26.573Z,12.13
2019-04-20T00:12:03.848Z,13.10
2019-04-20T00:14:29.592Z,11.83
2019-04-20T00:16:56.905Z,12.10
2019-04-20T00:19:35.393Z,12.30
2019-04-20T00:22:14.908Z,13.33
2019-04-20T00:25:04.044Z,12.97
2019-04-20T00:27:52.080Z,12.20
2019-04-20T00:30:25.039Z,11.63
2019-04-20T00:32:47.902Z,11.90
2019-04-20T00:35:06.356Z,11.47
2019-04-20T00:37:36.201Z,11.83
2019-04-20T00:40:07.791Z,12.40
2019-04-20T00:42:45.240Z,11.87
2019-04-20T00:45:15.959Z,13.30
2019-04-20T00:47:47.880Z,11.57
2019-04-20T00:50:29.844Z,11.80
2019-04-20T00:52:55.521Z,11.77
2019-04-20T00:55:15.336Z,12.10
2019-04-20T00:57:53.035Z,12.70
2019-04-20T01:00:31.288Z,11.30
2019-04-20T01:03:01.250Z,12.00
2019-04-20T01:05:58.440Z,11.23
2019-04-20T01:08:11.191Z,11.60
2019-04-20T01:10:47.736Z,12.07
2019-04-20T01:13:17.331Z,11.07
2019-04-20T01:15:51.649Z,11.60
2019-04-20T01:18:16.384Z,11.53
2019-04-20T01:20:47.267Z,11.43
2019-04-20T01:23:20.940Z,10.20
2019-04-20T01:25:55.813Z,11.60
2019-04-20T01:28:37.546Z,11.10
2019-04-20T01:31:00.213Z,12.00
2019-04-20T01:33:32.054Z,10.93
2019-04-20T01:36:10.398Z,11.67
2019-04-20T01:38:40.119Z,11.57
2019-04-20T01:40:57.076Z,11.50
2019-04-20T01:43:29.050Z,11.80
2019-04-20T01:46:04.779Z,11.43
2019-04-20T01:48:34.043Z,10.03
2019-04-20T01:51:07.209Z,11.00
2019-04-20T01:53:58.476Z,11.03
2019-04-20T01:56:18.103Z,12.00
2019-04-20T01:59:02.690Z,11.00
2019-04-20T02:01:34.310Z,11.67
2019-04-20T02:04:15.781Z,11.03
2019-04-20T02:06:48.121Z,11.83
2019-04-20T02:09:18.708Z,11.17
2019-04-20T02:11:47.353Z,10.70
2019-04-20T02:14:26.618Z,11.50
2019-04-20T02:16:52.750Z,11.80
2019-04-20T02:19:30.693Z,10.97
2019-04-20T02:22:02.623Z,11.13
2019-04-20T02:24:21.565Z,12.43
2019-04-20T02:26:51.923Z,11.43
2019-04-20T02:29:44.303Z,11.73
2019-04-20T02:35:09.341Z,12.10
2019-04-20T02:37:56.610Z,12.83
2019-04-20T02:40:15.928Z,11.40
2019-04-20T02:45:27.825Z,12.87
2019-04-20T02:48:14.099Z,12.20
2019-04-20T02:50:20.691Z,12.80
2019-04-20T02:52:56.504Z,13.53
2019-04-20T02:55:23.517Z,14.10
2019-04-20T03:00:17.818Z,14.63
2019-04-20T03:02:41.576Z,14.20
2019-04-20T03:05:10.251Z,15.23
2019-04-20T03:07:50.336Z,15.57
2019-04-20T03:10:18.874Z,15.63
2019-04-20T03:12:50.539Z,15.70
2019-04-20T03:15:22.153Z,17.10
2019-04-20T03:17:51.237Z,16.97
2019-04-20T03:20:32.003Z,16.67
2019-04-20T03:23:17.486Z,16.60
2019-04-20T03:25:53.442Z,16.43
2019-04-20T03:28:21.587Z,17.43
2019-04-20T03:34:03.474Z,17.87
2019-04-20T03:36:12.440Z,18.63
2019-04-20T03:38:33.090Z,16.30
2019-04-20T03:40:57.419Z,18.00
2019-04-20T03:43:13.918Z,16.47
2019-04-20T03:45:51.822Z,17.37
2019-04-20T03:48:33.693Z,18.07
2019-04-20T03:51:08.966Z,16.17
2019-04-20T03:53:39.495Z,18.00
2019-04-20T03:56:34.878Z,17.13
2019-04-20T03:59:14.085Z,18.50
2019-04-20T04:02:15.003Z,19.50
2019-04-20T04:04:33.911Z,19.77
2019-04-20T04:06:49.920Z,18.07
2019-04-20T04:09:25.688Z,18.60
2019-04-20T04:11:58.498Z,18.40
2019-04-20T04:14:17.751Z,20.17
2019-04-20T04:16:51.306Z,18.80
2019-04-20T04:19:25.186Z,19.43
2019-04-20T04:22:07.520Z,16.57
2019-04-20T04:24:31.428Z,17.03
2019-04-20T04:27:05.711Z,17.90
2019-04-20T04:29:44.206Z,18.30
2019-04-20T04:32:21.097Z,18.70
2019-04-20T04:34:45.890Z,18.43
2019-04-20T04:37:17.714Z,18.70
2019-04-20T04:39:56.054Z,18.03
2019-04-20T04:42:22.285Z,17.93
2019-04-20T04:44:43.311Z,16.90
2019-04-20T04:47:08.378Z,17.57
2019-04-20T04:49:40.054Z,17.73
2019-04-20T04:52:12.650Z,16.90
2019-04-20T04:54:47.515Z,15.97
2019-04-20T04:57:09.828Z,16.27
2019-04-20T04:59:40.363Z,16.80
2019-04-20T05:02:09.928Z,18.43
2019-04-20T05:05:18.014Z,16.60
2019-04-20T05:07:43.738Z,16.53
2019-04-20T05:10:03.557Z,15.40
2019-04-20T05:12:35.069Z,16.40
2019-04-20T05:15:14.380Z,15.80
2019-04-20T05:18:00.210Z,16.03
2019-04-20T05:20:31.719Z,14.17
2019-04-20T05:23:08.535Z,15.50
2019-04-20T05:26:01.764Z,14.23
2019-04-20T05:28:24.349Z,14.70
2019-04-20T05:30:51.980Z,13.67
2019-04-20T05:33:27.869Z,14.20
2019-04-20T05:36:09.942Z,14.70
2019-04-20T05:38:41.996Z,14.40
2019-04-20T05:41:11.738Z,14.33
2019-04-20T05:43:41.484Z,15.00
2019-04-20T05:46:24.458Z,16.20
2019-04-20T05:48:50.514Z,14.67
2019-04-20T05:51:25.625Z,14.33
2019-04-20T05:53:52.025Z,14.37
2019-04-20T05:56:30.494Z,13.63
2019-04-20T05:58:58.068Z,13.37
2019-04-20T06:01:25.004Z,14.50
2019-04-20T06:03:56.815Z,14.83
2019-04-20T06:06:35.466Z,13.80
2019-04-20T06:09:05.488Z,13.90
2019-04-20T06:11:32.567Z,14.10
2019-04-20T06:13:59.933Z,13.20
2019-04-20T06:16:45.223Z,14.87
2019-04-20T06:19:24.366Z,13.47
2019-04-20T06:21:52.931Z,14.00
2019-04-20T06:24:28.979Z,14.33
2019-04-20T06:29:23.907Z,14.03
2019-04-20T06:31:59.344Z,14.00
2019-04-20T06:34:33.414Z,15.33
2019-04-20T06:37:01.011Z,13.27
2019-04-20T06:39:40.416Z,14.30
2019-04-20T06:42:09.838Z,14.63
2019-04-20T06:44:37.037Z,13.80
2019-04-20T06:47:15.816Z,14.73
2019-04-20T06:49:51.612Z,15.10
2019-04-20T06:52:34.411Z,15.77
2019-04-20T06:54:54.748Z,13.97
2019-04-20T06:57:29.199Z,14.43
2019-04-20T07:00:05.807Z,15.10
2019-04-20T07:04:59.370Z,14.17
2019-04-20T07:07:29.876Z,15.00
2019-04-20T07:12:33.170Z,14.10
2019-04-20T07:14:55.499Z,14.93
2019-04-20T07:17:45.534Z,14.90
2019-04-20T07:20:09.855Z,14.67
2019-04-20T07:23:11.945Z,14.17
2019-04-20T07:25:19.353Z,14.10
2019-04-20T07:27:53.603Z,13.27
2019-04-20T07:30:19.350Z,13.27
2019-04-20T07:32:58.007Z,12.97
2019-04-20T07:35:25.652Z,18.27
2019-04-20T07:38:21.297Z,16.20
2019-04-20T07:40:24.699Z,14.70
2019-04-20T07:42:58.938Z,15.20
2019-04-20T07:45:33.177Z,13.63
2019-04-20T07:48:07.809Z,15.93
2019-04-20T07:50:25.074Z,13.77
2019-04-20T07:52:58.614Z,14.83
2019-04-20T07:55:47.526Z,14.13
2019-04-20T07:58:02.571Z,13.37
2019-04-20T08:00:48.598Z,14.00
2019-04-20T08:03:20.144Z,13.90
2019-04-20T08:05:39.255Z,13.60
2019-04-20T08:08:21.013Z,14.33
2019-04-20T08:10:51.065Z,13.60
2019-04-20T08:16:00.629Z,13.50
2019-04-20T08:18:27.164Z,13.70
2019-04-20T08:20:59.620Z,13.87
2019-04-20T08:23:29.969Z,14.20
2019-04-20T08:25:49.787Z,14.03
2019-04-20T08:28:34.970Z,12.50
2019-04-20T08:31:26.912Z,14.67
2019-04-20T08:34:15.168Z,12.93
2019-04-20T08:36:40.518Z,14.10
2019-04-20T08:41:38.511Z,13.53
2019-04-20T08:46:49.515Z,12.90
2019-04-20T08:49:17.367Z,14.53
2019-04-20T08:51:49.614Z,13.50
2019-04-20T08:54:14.070Z,13.87
2019-04-20T08:56:38.277Z,13.00
2019-04-20T08:58:59.509Z,12.90
2019-04-20T09:01:33.815Z,13.73
2019-04-20T09:04:09.751Z,13.33
2019-04-20T09:06:47.017Z,13.60
2019-04-20T09:09:31.835Z,14.20
2019-04-20T09:11:55.524Z,12.93
2019-04-20T09:14:21.293Z,14.57
2019-04-20T09:17:01.536Z,13.07
2019-04-20T09:19:36.755Z,14.07
2019-04-20T09:22:14.746Z,13.43
2019-04-20T09:24:51.474Z,14.40
2019-04-20T09:27:15.691Z,14.40
2019-04-20T09:29:40.715Z,13.63
2019-04-20T09:32:31.258Z,12.77
2019-04-20T09:35:09.799Z,13.03
2019-04-20T09:37:43.321Z,13.37
2019-04-20T09:40:28.286Z,13.30
2019-04-20T09:42:39.565Z,13.90
2019-04-20T09:45:18.084Z,13.30
2019-04-20T09:47:47.860Z,13.40
2019-04-20T09:50:31.829Z,13.00
2019-04-20T09:53:02.470Z,14.50
2019-04-20T09:55:29.438Z,13.10
2019-04-20T09:58:01.495Z,13.90
2019-04-20T10:00:38.399Z,13.60
2019-04-20T10:02:52.633Z,13.23
2019-04-20T10:05:23.272Z,14.20
2019-04-20T10:07:55.989Z,13.50
2019-04-20T10:10:31.375Z,13.00
2019-04-20T10:12:56.392Z,13.87
2019-04-20T10:15:27.853Z,13.40
2019-04-20T10:17:57.191Z,12.83
2019-04-20T10:20:30.927Z,13.50
2019-04-20T10:22:58.454Z,13.20
2019-04-20T10:25:28.696Z,13.10
2019-04-20T10:27:58.379Z,13.63
2019-04-20T10:30:28.493Z,13.77
2019-04-20T10:32:59.390Z,13.60
2019-04-20T10:35:29.724Z,13.60
2019-04-20T10:38:05.306Z,13.00
2019-04-20T10:40:46.361Z,13.47
2019-04-20T10:43:08.040Z,13.80
2019-04-20T10:45:37.598Z,13.87
2019-04-20T10:48:07.129Z,13.80
2019-04-20T10:50:36.829Z,13.30
2019-04-20T10:53:07.842Z,13.70
2019-04-20T10:55:37.775Z,13.10
2019-04-20T10:58:07.458Z,13.17
2019-04-20T11:00:43.819Z,13.10
2019-04-20T11:03:15.704Z,12.40
2019-04-20T11:05:46.768Z,12.60
2019-04-20T11:08:16.860Z,11.00
2019-04-20T11:10:57.921Z,11.20
2019-04-20T11:13:19.295Z,11.77
2019-04-20T11:15:48.944Z,9.93
2019-04-20T11:18:21.740Z,11.33
2019-04-20T11:20:57.418Z,11.20
2019-04-20T11:23:28.652Z,11.20
2019-04-20T11:25:58.511Z,11.10
2019-04-20T11:28:28.216Z,10.90
2019-04-20T11:30:58.534Z,11.37
2019-04-20T11:33:29.926Z,11.10
2019-04-20T11:36:01.114Z,11.10
2019-04-20T11:38:30.781Z,10.40
2019-04-20T11:41:10.606Z,10.40
2019-04-20T11:43:31.626Z,9.40
2019-04-20T11:46:01.130Z,12.03
2019-04-20T11:48:31.701Z,10.50
2019-04-20T11:51:01.424Z,10.00
2019-04-20T11:53:32.274Z,9.93
2019-04-20T11:56:02.550Z,11.37
2019-04-20T11:58:33.143Z,10.87
2019-04-20T12:01:11.055Z,11.40
2019-04-20T12:03:47.872Z,10.90
2019-04-20T12:06:08.636Z,10.90
2019-04-20T12:08:41.924Z,10.90
2019-04-20T12:11:23.060Z,10.33
2019-04-20T12:13:42.724Z,9.63
2019-04-20T12:16:12.385Z,11.50
2019-04-20T12:18:42.140Z,9.93
2019-04-20T12:21:12.749Z,10.27
2019-04-20T12:23:42.486Z,11.53
2019-04-20T12:26:13.051Z,10.67
2019-04-20T12:28:43.366Z,10.37
2019-04-20T12:31:19.619Z,9.43
2019-04-20T12:33:44.349Z,10.93
2019-04-20T12:36:14.732Z,10.03
2019-04-20T12:38:46.173Z,11.63
2019-04-20T12:41:16.153Z,10.17
2019-04-20T12:43:45.892Z,10.27
2019-04-20T12:46:18.287Z,11.37
2019-04-20T12:48:47.424Z,8.67
2019-04-20T12:51:17.560Z,10.37
2019-04-20T12:53:48.462Z,10.83
2019-04-20T12:56:18.385Z,9.63
2019-04-20T12:58:49.412Z,10.17
2019-04-20T13:01:21.088Z,10.10
2019-04-20T13:03:50.314Z,10.87
2019-04-20T13:06:21.480Z,11.07
2019-04-20T13:08:55.524Z,10.23
2019-04-20T13:11:38.558Z,11.50
2019-04-20T13:14:34.665Z,12.00
2019-04-20T13:17:04.266Z,10.90
2019-04-20T13:19:35.160Z,9.40
2019-04-20T13:22:05.349Z,9.50
2019-04-20T13:24:34.937Z,10.50
2019-04-20T13:27:04.825Z,10.13
2019-04-20T13:29:35.089Z,10.73
2019-04-20T13:32:05.466Z,10.70
2019-04-20T13:34:36.100Z,10.77
2019-04-20T13:37:06.404Z,9.97
2019-04-20T13:39:36.048Z,9.43
2019-04-20T13:42:12.116Z,10.37
2019-04-20T13:44:36.975Z,9.60
2019-04-20T13:47:07.250Z,9.83
2019-04-20T13:49:37.129Z,10.70
2019-04-20T13:52:06.891Z,10.10
2019-04-20T13:54:37.979Z,9.40
2019-04-20T13:57:10.024Z,8.80
2019-04-20T13:59:44.075Z,9.50
2019-04-20T14:02:33.092Z,13.93
2019-04-20T14:05:04.674Z,9.43
2019-04-20T14:07:35.643Z,12.13
2019-04-20T14:10:06.800Z,9.30
2019-04-20T14:12:39.324Z,9.47
2019-04-20T14:15:09.092Z,8.90
2019-04-20T14:17:39.204Z,8.00
2019-04-20T14:20:15.044Z,8.77
2019-04-20T14:22:41.102Z,8.40
2019-04-20T14:25:11.178Z,9.00
2019-04-20T14:27:40.762Z,8.77
2019-04-20T14:30:11.361Z,9.40
2019-04-20T14:32:40.983Z,9.07
2019-04-20T14:35:11.341Z,7.77
2019-04-20T14:37:41.663Z,8.03
2019-04-20T14:40:12.602Z,8.43
2019-04-20T14:42:47.782Z,9.20
2019-04-20T14:45:14.493Z,9.57
2019-04-20T14:47:44.062Z,8.70
2019-04-20T14:50:17.918Z,8.77
2019-04-20T14:52:47.700Z,9.20
2019-04-20T14:55:19.137Z,7.90
2019-04-20T14:57:49.786Z,8.23
2019-04-20T15:00:45.797Z,7.30
2019-04-20T15:03:36.727Z,8.50
2019-04-20T15:06:05.506Z,8.20
2019-04-20T15:08:36.630Z,7.73
2019-04-20T15:11:07.321Z,9.33
2019-04-20T15:13:38.500Z,7.97
2019-04-20T15:16:08.669Z,9.73
2019-04-20T15:18:54.644Z,8.80
2019-04-20T15:21:27.127Z,8.93
2019-04-20T15:23:57.477Z,9.37
2019-04-20T15:26:27.122Z,8.57
2019-04-20T15:28:56.714Z,8.07
2019-04-20T15:31:26.442Z,8.77
2019-04-20T15:33:57.068Z,8.63
2019-04-20T15:36:28.363Z,9.67
2019-04-20T15:38:59.018Z,10.20
2019-04-20T15:41:29.435Z,8.87
2019-04-20T15:43:59.496Z,8.70
2019-04-20T15:46:31.346Z,8.97
2019-04-20T15:49:01.905Z,8.30
2019-04-20T15:51:31.998Z,9.00
2019-04-20T15:54:01.971Z,10.30
2019-04-20T15:56:31.624Z,9.60
2019-04-20T15:59:02.250Z,10.37
2019-04-20T16:01:36.631Z,10.17
2019-04-20T16:04:11.796Z,12.10
2019-04-20T16:06:39.283Z,11.47
2019-04-20T16:09:10.333Z,12.33
2019-04-20T16:11:41.176Z,10.43
2019-04-20T16:14:10.875Z,10.73
2019-04-20T16:16:40.462Z,10.20
2019-04-20T16:19:26.787Z,15.90
2019-04-20T16:21:43.696Z,12.10
2019-04-20T16:24:15.014Z,22.90
2019-04-20T16:26:47.433Z,19.47
2019-04-20T16:29:17.694Z,16.40
2019-04-20T16:31:49.078Z,14.50
2019-04-20T16:34:19.264Z,22.40
2019-04-20T16:36:51.712Z,16.90
2019-04-20T16:39:20.487Z,12.70
2019-04-20T16:41:50.705Z,24.53
2019-04-20T16:44:21.040Z,14.23
2019-04-20T16:46:52.064Z,10.40
2019-04-20T16:49:23.279Z,20.00
2019-04-20T16:51:53.004Z,12.30
2019-04-20T16:54:27.994Z,24.77
2019-04-20T16:56:58.051Z,13.50
2019-04-20T16:59:28.298Z,10.80
2019-04-20T17:01:58.248Z,12.03
2019-04-20T17:04:29.033Z,10.27
2019-04-20T17:07:16.555Z,9.70
2019-04-20T17:09:47.924Z,10.13
2019-04-20T17:12:17.787Z,12.27
2019-04-20T17:14:47.662Z,11.63
2019-04-20T17:17:17.738Z,12.03
2019-04-20T17:19:47.496Z,11.10
2019-04-20T17:22:17.404Z,11.47
2019-04-20T17:24:47.248Z,11.93
2019-04-20T17:27:24.432Z,10.93
2019-04-20T17:30:13.008Z,12.80
2019-04-20T17:32:43.527Z,12.30
2019-04-20T17:35:27.442Z,14.20
2019-04-20T17:37:46.997Z,13.07
2019-04-20T17:40:38.175Z,15.30
2019-04-20T17:43:01.704Z,12.10
2019-04-20T17:45:28.816Z,12.90
2019-04-20T17:48:06.514Z,16.70
2019-04-20T17:50:41.515Z,15.60
2019-04-20T17:53:07.482Z,16.27
2019-04-20T17:55:41.023Z,14.07
2019-04-20T17:58:12.092Z,15.20
2019-04-20T18:00:54.781Z,16.20
2019-04-20T18:03:58.879Z,16.30
2019-04-20T18:06:15.924Z,15.20
2019-04-20T18:08:46.822Z,16.40
2019-04-20T18:11:07.694Z,16.30
2019-04-20T18:13:33.669Z,18.57
2019-04-20T18:16:29.697Z,17.43
2019-04-20T18:19:03.218Z,17.93
2019-04-20T18:21:30.755Z,20.07
2019-04-20T18:24:00.456Z,20.27
2019-04-20T18:26:50.678Z,17.43
2019-04-20T18:29:20.242Z,25.70
2019-04-20T18:31:41.774Z,26.10
2019-04-20T18:34:17.943Z,25.07
2019-04-20T18:36:47.264Z,23.20
2019-04-20T18:39:18.074Z,21.60
2019-04-20T18:41:53.203Z,19.10
2019-04-20T18:44:21.087Z,19.57
2019-04-20T18:47:21.675Z,19.17
2019-04-20T18:49:38.621Z,16.70
2019-04-20T18:51:56.023Z,16.70
2019-04-20T18:54:32.150Z,19.10
2019-04-20T18:56:59.799Z,19.53
2019-04-20T18:59:35.940Z,28.80
2019-04-20T19:02:01.243Z,27.43
2019-04-20T19:04:31.922Z,31.13
2019-04-20T19:07:03.635Z,35.73
2019-04-20T19:09:34.756Z,34.87
2019-04-20T19:12:09.088Z,29.33
2019-04-20T19:14:49.927Z,22.03
2019-04-20T19:17:49.349Z,22.30
2019-04-20T19:20:14.066Z,25.20
2019-04-20T19:22:44.111Z,56.67
2019-04-20T19:25:19.837Z,173.07
2019-04-20T19:27:50.865Z,88.63
2019-04-20T19:30:27.391Z,70.03
2019-04-20T19:33:08.946Z,38.77
2019-04-20T19:35:34.978Z,31.87
2019-04-20T19:38:04.271Z,31.57
2019-04-20T19:40:33.651Z,27.77
2019-04-20T19:43:08.464Z,19.73
2019-04-20T19:45:51.266Z,15.33
2019-04-20T19:48:12.394Z,12.50
2019-04-20T19:51:08.456Z,10.50
2019-04-20T19:53:24.675Z,10.33
2019-04-20T19:55:43.888Z,12.27
2019-04-20T19:58:19.250Z,16.37
2019-04-20T20:00:51.241Z,11.70
2019-04-20T20:03:19.800Z,13.13
2019-04-20T20:05:51.823Z,10.30
2019-04-20T20:08:24.489Z,10.90
2019-04-20T20:10:52.628Z,11.57
2019-04-20T20:13:27.710Z,10.97
2019-04-20T20:16:02.453Z,12.80
2019-04-20T20:18:39.179Z,11.70
2019-04-20T20:21:12.240Z,13.40
2019-04-20T20:23:29.974Z,12.43
2019-04-20T20:26:02.320Z,10.63
2019-04-20T20:28:40.611Z,10.33
2019-04-20T20:31:13.485Z,12.17
2019-04-20T20:33:53.383Z,9.80
2019-04-20T20:36:13.993Z,9.20
2019-04-20T20:38:43.004Z,11.07
2019-04-20T20:41:18.366Z,8.57
2019-04-20T20:43:53.574Z,9.20
2019-04-20T20:46:25.476Z,8.40
2019-04-20T20:49:04.856Z,8.63
2019-04-20T20:51:37.818Z,8.17
2019-04-20T20:53:56.444Z,8.90
2019-04-20T20:56:24.140Z,8.37
2019-04-20T20:58:59.637Z,8.33
2019-04-20T21:01:23.748Z,7.70
2019-04-20T21:03:53.004Z,8.80
2019-04-20T21:06:22.422Z,8.70
2019-04-20T21:08:56.009Z,8.10
2019-04-20T21:11:27.497Z,10.57
2019-04-20T21:13:55.736Z,8.07
2019-04-20T21:16:31.516Z,7.50
2019-04-20T21:19:15.851Z,7.83
2019-04-20T21:21:42.268Z,7.90
2019-04-20T21:24:07.551Z,7.40
2019-04-20T21:26:37.597Z,7.00
2019-04-20T21:29:03.895Z,8.30
2019-04-20T21:31:34.416Z,8.60
2019-04-20T21:34:10.468Z,8.70
2019-04-20T21:36:35.254Z,10.90
2019-04-20T21:39:08.650Z,12.10
2019-04-20T21:41:40.809Z,10.90
2019-04-20T21:44:15.616Z,10.70
2019-04-20T21:46:45.760Z,10.83
2019-04-20T21:49:27.782Z,9.80
2019-04-20T21:51:50.314Z,10.43
2019-04-20T21:54:15.986Z,8.73
2019-04-20T21:56:53.861Z,8.90
2019-04-20T21:59:24.076Z,9.20
2019-04-20T22:01:58.591Z,9.57
2019-04-20T22:04:22.473Z,9.07
2019-04-20T22:06:52.028Z,9.53
2019-04-20T22:09:25.167Z,9.70
2019-04-20T22:11:53.908Z,11.40
2019-04-20T22:14:26.190Z,10.70
2019-04-20T22:16:56.871Z,10.10
2019-04-20T22:19:36.696Z,10.87
2019-04-20T22:22:08.467Z,12.93
2019-04-20T22:24:46.531Z,12.93
2019-04-20T22:27:06.250Z,15.30
2019-04-20T22:29:32.263Z,15.80
2019-04-20T22:32:11.285Z,22.13
2019-04-20T22:34:37.686Z,19.03
2019-04-20T22:37:08.527Z,18.40
2019-04-20T22:39:45.670Z,13.90
2019-04-20T22:42:14.382Z,12.53
2019-04-20T22:44:43.199Z,14.43
2019-04-20T22:47:20.797Z,9.80
2019-04-20T22:50:03.389Z,10.33
2019-04-20T22:52:29.369Z,12.40
2019-04-20T22:55:10.098Z,13.37
2019-04-20T22:57:31.616Z,15.77
2019-04-20T22:59:56.885Z,19.00
2019-04-20T23:02:22.975Z,24.57
2019-04-20T23:04:53.158Z,20.50
2019-04-20T23:07:23.043Z,22.63
2019-04-20T23:09:56.095Z,25.20
2019-04-20T23:12:26.924Z,21.97
2019-04-20T23:14:56.491Z,17.83
2019-04-20T23:17:33.471Z,14.90
2019-04-20T23:20:00.947Z,13.83
2019-04-20T23:22:36.918Z,13.43
2019-04-20T23:25:00.726Z,14.73
2019-04-20T23:27:32.128Z,15.00
2019-04-20T23:30:05.892Z,16.30
2019-04-20T23:32:33.842Z,17.23
2019-04-20T23:35:11.248Z,18.27
2019-04-20T23:37:38.536Z,16.43
2019-04-20T23:40:10.052Z,16.90
2019-04-20T23:42:51.600Z,17.10
2019-04-20T23:45:40.509Z,16.63
2019-04-20T23:48:10.460Z,17.23
2019-04-20T23:50:56.264Z,16.60
2019-04-20T23:53:28.500Z,16.90
2019-04-20T23:55:43.643Z,17.30
2019-04-20T23:58:14.708Z,17.27
